Modesto, CA (95350)

5:27 AM PST on December 05, 2016 (GMT -0800)
Carver RD @ Rumble RD | | Change Station

Elev 95 ft 37.68 °N, 121.02 °W | Updated 7 seconds ago

Clear
Clear
37.6 °F
Feels Like 38 °F
N
0.0
Wind Variable Wind from ESE
Gusts 0.0 mph

Today
High -- | Low -- °F
--% Chance of Precip.
Yesterday
High -- | Low -- °F
Precip. -- in
Pressure 30.07 in
Visibility 1.8 miles
Clouds Clear
Windchill 38 °F
Dew Point 37 °F
Humidity 99%
Rainfall 0.00 in
Snow Depth Not available.
7:04 AM 4:45 PM
Waxing Crescent, 31% visible
SPECI KMOD 051317Z AUTO 00000KT 1 3/4SM BR CLR 03/02 A3007 RMK AO2 T00330017
Pressure 30.07 in
Visibility 1.8 miles
Clouds Clear
Windchill 38 °F
Dew Point 37 °F
Humidity 99%
Rainfall 0.00 in
Snow Depth Not available.
7:04 AM 4:45 PM
Waxing Crescent, 31% visible
SPECI KMOD 051317Z AUTO 00000KT 1 3/4SM BR CLR 03/02 A3007 RMK AO2 T00330017

10-Day Weather Forecast

Almanac

Astronomy

Dec. 05, 2016 Rise Set
Actual Time
Civil Twilight
Nautical Twilight
Astronomical Twilight
Moon
Length of Visible Light
Length of Day
Tomorrow will be .
, % of the Moon is Illuminated

Today's Extremes

State Highs State Lows

Community

WunderPhotos

Upload Photos

1,955,780 photos uploaded!

WunderBlog® & News

Nearby

Air Quality

  Air Quality AQ Index Pollutant
Not available.

Snow Depth

Station Depth Elevation

Earthquake Activity

City Distance Mag. Time & Date
Minimum magnitude displayed is 2.5.

Coastal Water Temperatures

Place Temperature

Stations

Nearby Weather Stations

Station Location Temp. Windchill Dew Point Humidity Wind Precip. Elev Updated Type
                   

Watches & Warnings

There are currently no watches in effect.